createdAt,value
2018-05-29T00:02:12.580Z,18.50
2018-05-29T00:04:40.993Z,18.40
2018-05-29T00:07:08.448Z,18.40
2018-05-29T00:09:35.904Z,18.30
2018-05-29T00:12:03.389Z,18.30
2018-05-29T00:14:31.615Z,18.20
2018-05-29T00:16:59.036Z,18.20
2018-05-29T00:19:26.812Z,18.20
2018-05-29T00:21:54.224Z,18.10
2018-05-29T00:24:21.672Z,18.10
2018-05-29T00:26:49.253Z,18.00
2018-05-29T00:29:16.745Z,18.00
2018-05-29T00:31:44.954Z,17.90
2018-05-29T00:34:12.665Z,17.90
2018-05-29T00:36:40.100Z,17.90
2018-05-29T00:39:07.565Z,17.90
2018-05-29T00:41:35.024Z,17.80
2018-05-29T00:44:02.551Z,17.80
2018-05-29T00:46:30.019Z,17.70
2018-05-29T00:48:57.644Z,17.70
2018-05-29T00:51:25.096Z,17.70
2018-05-29T00:53:53.540Z,17.70
2018-05-29T00:56:21.324Z,17.70
2018-05-29T00:58:48.780Z,17.80
2018-05-29T01:01:16.216Z,17.80
2018-05-29T01:03:43.703Z,17.80
2018-05-29T01:06:11.924Z,17.90
2018-05-29T01:08:39.376Z,17.80
2018-05-29T01:11:07.288Z,17.80
2018-05-29T01:13:34.755Z,17.80
2018-05-29T01:16:02.206Z,17.70
2018-05-29T01:18:29.640Z,17.70
2018-05-29T01:20:57.141Z,17.70
2018-05-29T01:23:25.343Z,17.60
2018-05-29T01:25:53.128Z,17.60
2018-05-29T01:28:20.573Z,17.60
2018-05-29T01:30:48.004Z,17.50
2018-05-29T01:33:15.745Z,17.50
2018-05-29T01:35:43.196Z,17.40
2018-05-29T01:38:10.652Z,17.40
2018-05-29T01:40:38.420Z,17.40
2018-05-29T01:43:05.984Z,17.40
2018-05-29T01:45:33.436Z,17.40
2018-05-29T01:48:01.124Z,17.30
2018-05-29T01:50:28.584Z,17.30
2018-05-29T01:52:56.018Z,17.20
2018-05-29T01:55:24.761Z,17.20
2018-05-29T01:57:52.207Z,17.20
2018-05-29T02:00:19.664Z,17.20
2018-05-29T02:02:47.368Z,17.20
2018-05-29T02:05:14.792Z,17.10
2018-05-29T02:07:42.266Z,17.10
2018-05-29T02:10:10.768Z,17.00
2018-05-29T02:12:38.204Z,17.00
2018-05-29T02:15:05.681Z,17.00
2018-05-29T02:17:33.451Z,17.00
2018-05-29T02:20:01.667Z,16.90
2018-05-29T02:22:29.129Z,16.90
2018-05-29T02:24:56.945Z,16.90
2018-05-29T02:27:24.400Z,16.80
2018-05-29T02:29:52.676Z,16.80
2018-05-29T02:32:20.108Z,16.80
2018-05-29T02:34:47.597Z,16.80
2018-05-29T02:37:15.352Z,16.80
2018-05-29T02:39:42.809Z,16.70
2018-05-29T02:42:10.268Z,16.80
2018-05-29T02:44:37.719Z,16.80
2018-05-29T02:47:05.189Z,16.70
2018-05-29T02:49:32.645Z,16.70
2018-05-29T02:52:00.464Z,16.60
2018-05-29T02:54:28.020Z,16.60
2018-05-29T02:56:55.488Z,16.60
2018-05-29T02:59:22.984Z,16.60
2018-05-29T03:01:50.436Z,16.60
2018-05-29T03:04:17.868Z,16.50
2018-05-29T03:06:45.324Z,16.50
2018-05-29T03:09:12.808Z,16.50
2018-05-29T03:11:40.228Z,16.50
2018-05-29T03:14:08.952Z,16.50
2018-05-29T03:16:36.404Z,16.50
2018-05-29T03:19:03.973Z,16.60
2018-05-29T03:21:31.437Z,16.50
2018-05-29T03:23:59.652Z,16.60
2018-05-29T03:26:27.115Z,16.60
2018-05-29T03:28:54.576Z,16.70
2018-05-29T03:31:22.256Z,16.80
2018-05-29T03:33:49.761Z,16.90
2018-05-29T03:36:18.393Z,17.00
2018-05-29T03:38:46.592Z,17.00
2018-05-29T03:41:14.054Z,17.10
2018-05-29T03:43:42.269Z,17.20
2018-05-29T03:46:09.736Z,17.20
2018-05-29T03:48:37.216Z,17.20
2018-05-29T03:51:04.648Z,17.20
2018-05-29T03:53:32.156Z,17.20
2018-05-29T03:55:59.612Z,17.30
2018-05-29T03:58:27.032Z,17.20
2018-05-29T04:00:54.693Z,17.30
2018-05-29T04:03:22.168Z,17.30
2018-05-29T04:05:49.644Z,17.30
2018-05-29T04:08:17.372Z,17.30
2018-05-29T04:10:45.585Z,17.30
2018-05-29T04:13:13.040Z,17.40
2018-05-29T04:15:40.496Z,17.40
2018-05-29T04:18:08.156Z,17.50
2018-05-29T04:20:35.617Z,17.50
2018-05-29T04:23:04.088Z,17.60
2018-05-29T04:25:31.519Z,17.60
2018-05-29T04:27:58.960Z,17.60
2018-05-29T04:30:26.440Z,17.60
2018-05-29T04:32:53.876Z,17.70
2018-05-29T04:35:21.351Z,17.70
2018-05-29T04:37:49.148Z,17.80
2018-05-29T04:40:17.447Z,17.90
2018-05-29T04:42:44.904Z,17.90
2018-05-29T04:45:12.924Z,18.00
2018-05-29T04:47:40.488Z,18.10
2018-05-29T04:50:07.967Z,18.10
2018-05-29T04:52:35.432Z,18.20
2018-05-29T04:55:03.664Z,18.40
2018-05-29T04:57:31.101Z,18.40
2018-05-29T04:59:58.588Z,18.50
2018-05-29T05:02:26.893Z,18.50
2018-05-29T05:04:54.320Z,18.60
2018-05-29T05:07:21.805Z,18.60
2018-05-29T05:09:49.260Z,18.70
2018-05-29T05:12:16.717Z,18.70
2018-05-29T05:14:44.892Z,18.80
2018-05-29T05:17:12.964Z,18.90
2018-05-29T05:19:40.995Z,19.00
2018-05-29T05:22:09.104Z,19.00
2018-05-29T05:24:36.528Z,19.00
2018-05-29T05:27:03.964Z,18.90
2018-05-29T05:29:32.001Z,19.00
2018-05-29T05:32:00.208Z,19.10
2018-05-29T05:34:28.132Z,19.10
2018-05-29T05:36:55.560Z,19.30
2018-05-29T05:39:24.544Z,19.60
2018-05-29T05:41:52.012Z,19.60
2018-05-29T05:44:20.289Z,19.70
2018-05-29T05:46:48.336Z,19.80
2018-05-29T05:49:15.792Z,20.00
2018-05-29T05:51:43.896Z,20.10
2018-05-29T05:54:12.036Z,20.00
2018-05-29T05:56:40.444Z,20.00
2018-05-29T05:59:08.745Z,20.00
2018-05-29T06:01:36.784Z,20.00
2018-05-29T06:04:04.948Z,20.20
2018-05-29T06:06:33.124Z,20.30
2018-05-29T06:09:00.670Z,20.50
2018-05-29T06:11:28.743Z,20.50
2018-05-29T06:13:56.944Z,20.70
2018-05-29T06:16:25.219Z,20.90
2018-05-29T06:18:52.596Z,21.10
2018-05-29T06:21:20.840Z,21.50
2018-05-29T06:23:49.018Z,21.50
2018-05-29T06:26:17.344Z,21.70
2018-05-29T06:28:46.328Z,21.60
2018-05-29T06:31:15.404Z,21.70
2018-05-29T06:33:42.920Z,21.70
2018-05-29T06:36:10.856Z,21.60
2018-05-29T06:38:39.147Z,21.50
2018-05-29T06:41:06.527Z,21.50
2018-05-29T06:43:34.812Z,21.50
2018-05-29T06:46:02.912Z,21.50
2018-05-29T06:48:31.207Z,21.40
2018-05-29T06:51:00.164Z,21.70
2018-05-29T06:53:28.289Z,21.60
2018-05-29T06:55:56.488Z,21.80
2018-05-29T06:58:24.673Z,21.80
2018-05-29T07:00:52.984Z,21.90
2018-05-29T07:03:21.260Z,22.10
2018-05-29T07:05:49.512Z,22.30
2018-05-29T07:08:16.984Z,22.60
2018-05-29T07:10:44.453Z,22.80
2018-05-29T07:13:12.747Z,23.10
2018-05-29T07:15:41.721Z,23.10
2018-05-29T07:18:09.225Z,23.10
2018-05-29T07:20:36.639Z,23.30
2018-05-29T07:23:05.728Z,23.20
2018-05-29T07:25:33.700Z,23.20
2018-05-29T07:28:01.849Z,23.20
2018-05-29T07:30:30.151Z,22.50
2018-05-29T07:32:58.613Z,22.30
2018-05-29T07:35:27.104Z,22.20
2018-05-29T07:37:55.155Z,22.30
2018-05-29T07:40:23.136Z,22.30
2018-05-29T07:42:51.376Z,22.30
2018-05-29T07:45:19.625Z,22.60
2018-05-29T07:47:48.590Z,24.30
2018-05-29T07:50:17.559Z,24.30
2018-05-29T07:52:46.005Z,24.90
2018-05-29T07:55:14.908Z,25.20
2018-05-29T07:57:43.106Z,25.20
2018-05-29T08:00:11.407Z,25.30
2018-05-29T08:02:38.891Z,25.30
2018-05-29T08:05:07.786Z,25.40
2018-05-29T08:07:35.270Z,25.40
2018-05-29T08:10:03.535Z,24.90
2018-05-29T08:12:31.008Z,24.70
2018-05-29T08:14:59.275Z,24.40
2018-05-29T08:17:27.520Z,24.30
2018-05-29T08:19:55.752Z,24.20
2018-05-29T08:22:23.905Z,24.10
2018-05-29T08:24:52.219Z,24.20
2018-05-29T08:27:20.456Z,24.20
2018-05-29T08:29:48.428Z,23.90
2018-05-29T08:32:16.500Z,23.80
2018-05-29T08:34:44.826Z,24.10
2018-05-29T08:37:13.917Z,24.30
2018-05-29T08:39:42.829Z,24.70
2018-05-29T08:42:13.240Z,25.00
2018-05-29T08:44:42.315Z,25.10
2018-05-29T08:47:10.916Z,25.00
2018-05-29T08:49:39.962Z,24.90
2018-05-29T08:52:08.434Z,24.90
2018-05-29T08:54:36.512Z,25.00
2018-05-29T08:57:04.835Z,24.90
2018-05-29T08:59:32.958Z,24.90
2018-05-29T09:02:01.084Z,25.10
2018-05-29T09:04:29.048Z,25.20
2018-05-29T09:06:57.228Z,25.20
2018-05-29T09:09:24.688Z,24.60
2018-05-29T09:11:54.078Z,24.90
2018-05-29T09:14:21.599Z,25.00
2018-05-29T09:16:50.020Z,24.70
2018-05-29T09:19:17.504Z,24.60
2018-05-29T09:21:46.420Z,24.40
2018-05-29T09:24:14.954Z,24.40
2018-05-29T09:26:43.709Z,24.30
2018-05-29T09:29:11.858Z,23.90
2018-05-29T09:31:39.986Z,23.80
2018-05-29T09:34:08.133Z,23.60
2018-05-29T09:36:35.626Z,23.40
2018-05-29T09:39:04.466Z,23.10
2018-05-29T09:41:32.609Z,23.10
2018-05-29T09:44:00.035Z,23.10
2018-05-29T09:46:28.366Z,23.10
2018-05-29T09:48:55.879Z,23.00
2018-05-29T09:51:24.093Z,23.30
2018-05-29T09:53:52.281Z,23.30
2018-05-29T09:56:20.616Z,23.00
2018-05-29T09:58:48.848Z,22.70
2018-05-29T10:01:17.036Z,22.60
2018-05-29T10:03:45.325Z,22.70
2018-05-29T10:06:14.212Z,23.10
2018-05-29T10:08:43.005Z,23.00
2018-05-29T10:11:11.162Z,23.00
2018-05-29T10:13:39.411Z,23.00
2018-05-29T10:16:07.524Z,22.80
2018-05-29T10:18:35.659Z,22.70
2018-05-29T10:21:03.732Z,23.00
2018-05-29T10:23:31.801Z,23.00
2018-05-29T10:25:59.912Z,22.90
2018-05-29T10:28:27.976Z,22.80
2018-05-29T10:30:56.945Z,22.90
2018-05-29T10:33:26.016Z,23.30
2018-05-29T10:35:54.173Z,23.30
2018-05-29T10:38:22.276Z,23.80
2018-05-29T10:40:50.156Z,24.00
2018-05-29T10:43:18.144Z,24.20
2018-05-29T10:45:46.705Z,24.60
2018-05-29T10:48:14.789Z,24.80
2018-05-29T10:50:43.749Z,24.50
2018-05-29T10:53:12.076Z,24.50
2018-05-29T10:55:41.703Z,24.70
2018-05-29T10:58:10.585Z,24.30
2018-05-29T11:00:39.464Z,24.30
2018-05-29T11:03:08.124Z,24.60
2018-05-29T11:05:36.115Z,24.60
2018-05-29T11:08:04.193Z,24.60
2018-05-29T11:10:32.958Z,25.50
2018-05-29T11:13:01.260Z,25.40
2018-05-29T11:15:28.817Z,25.70
2018-05-29T11:17:57.703Z,25.90
2018-05-29T11:20:27.387Z,25.70
2018-05-29T11:22:55.489Z,25.60
2018-05-29T11:25:23.765Z,25.40
2018-05-29T11:27:51.932Z,25.20
2018-05-29T11:30:19.713Z,25.20
2018-05-29T11:32:48.695Z,25.30
2018-05-29T11:35:17.776Z,25.20
2018-05-29T11:37:45.810Z,25.10
2018-05-29T11:40:13.228Z,25.00
2018-05-29T11:42:41.284Z,24.70
2018-05-29T11:45:09.664Z,24.80
2018-05-29T11:47:37.749Z,25.00
2018-05-29T11:50:07.447Z,25.20
2018-05-29T11:52:36.440Z,25.30
2018-05-29T11:55:04.393Z,25.30
2018-05-29T11:57:32.509Z,24.90
2018-05-29T12:00:00.664Z,24.80
2018-05-29T12:02:28.888Z,24.50
2018-05-29T12:04:57.095Z,24.20
2018-05-29T12:07:25.490Z,24.00
2018-05-29T12:09:54.692Z,23.90
2018-05-29T12:12:23.736Z,23.70
2018-05-29T12:14:52.068Z,23.70
2018-05-29T12:17:20.858Z,23.90
2018-05-29T12:19:49.936Z,23.70
2018-05-29T12:22:18.949Z,23.70
2018-05-29T12:24:47.312Z,23.70
2018-05-29T12:27:16.067Z,23.70
2018-05-29T12:29:43.525Z,23.70
2018-05-29T12:32:12.608Z,23.70
2018-05-29T12:34:41.128Z,23.60
2018-05-29T12:37:09.171Z,23.70
2018-05-29T12:39:37.244Z,23.80
2018-05-29T12:42:05.466Z,23.80
2018-05-29T12:44:34.606Z,24.30
2018-05-29T12:47:02.709Z,24.40
2018-05-29T12:49:31.092Z,24.80
2018-05-29T12:51:58.512Z,25.20
2018-05-29T12:54:26.632Z,25.30
2018-05-29T12:56:55.588Z,25.10
2018-05-29T12:59:23.790Z,25.10
2018-05-29T13:01:52.671Z,25.20
2018-05-29T13:04:20.628Z,25.10
2018-05-29T13:06:48.928Z,25.00
2018-05-29T13:09:17.759Z,24.70
2018-05-29T13:11:46.000Z,24.70
2018-05-29T13:14:14.768Z,24.70
2018-05-29T13:16:42.247Z,24.70
2018-05-29T13:19:10.594Z,24.60
2018-05-29T13:21:38.048Z,24.50
2018-05-29T13:24:06.054Z,24.60
2018-05-29T13:26:34.733Z,24.90
2018-05-29T13:29:03.697Z,24.90
2018-05-29T13:31:31.584Z,24.90
2018-05-29T13:33:59.674Z,25.10
2018-05-29T13:36:27.876Z,24.50
2018-05-29T13:38:56.116Z,24.40
2018-05-29T13:41:28.842Z,24.20
2018-05-29T13:43:57.264Z,24.20
2018-05-29T13:46:27.088Z,24.00
2018-05-29T13:48:56.035Z,24.00
2018-05-29T13:51:24.204Z,24.00
2018-05-29T13:53:52.276Z,24.00
2018-05-29T13:56:20.658Z,23.90
2018-05-29T13:58:48.834Z,23.80
2018-05-29T14:01:16.300Z,23.70
2018-05-29T14:03:44.258Z,23.70
2018-05-29T14:06:11.732Z,23.70
2018-05-29T14:08:39.885Z,23.60
2018-05-29T14:11:07.332Z,23.30
2018-05-29T14:13:35.612Z,23.50
2018-05-29T14:16:04.764Z,23.80
2018-05-29T14:18:33.912Z,25.00
2018-05-29T14:21:02.244Z,25.00
2018-05-29T14:23:30.468Z,26.30
2018-05-29T14:25:58.885Z,26.30
2018-05-29T14:28:26.856Z,26.60
2018-05-29T14:30:54.267Z,26.60
2018-05-29T14:33:21.710Z,26.80
2018-05-29T14:35:49.188Z,26.60
2018-05-29T14:38:16.652Z,26.70
2018-05-29T14:40:44.109Z,26.70
2018-05-29T14:43:12.413Z,26.70
2018-05-29T14:45:39.833Z,26.60
2018-05-29T14:48:07.300Z,26.40
2018-05-29T14:50:35.185Z,26.30
2018-05-29T14:53:03.457Z,26.00
2018-05-29T14:55:30.928Z,25.70
2018-05-29T14:57:58.947Z,25.50
2018-05-29T15:00:27.037Z,25.30
2018-05-29T15:02:55.141Z,25.30
2018-05-29T15:05:23.316Z,25.80
2018-05-29T15:07:50.770Z,26.10
2018-05-29T15:10:19.048Z,26.00
2018-05-29T15:12:47.084Z,25.90
2018-05-29T15:15:14.529Z,25.70
2018-05-29T15:17:41.981Z,25.80
2018-05-29T15:20:10.208Z,25.60
2018-05-29T15:22:38.280Z,25.60
2018-05-29T15:25:05.736Z,25.50
2018-05-29T15:27:33.192Z,25.30
2018-05-29T15:30:00.957Z,25.00
2018-05-29T15:32:29.104Z,24.30
2018-05-29T15:34:57.268Z,24.50
2018-05-29T15:37:25.376Z,24.60
2018-05-29T15:39:52.791Z,24.80
2018-05-29T15:42:20.252Z,25.00
2018-05-29T15:44:48.224Z,25.00
2018-05-29T15:47:16.432Z,25.10
2018-05-29T15:49:43.848Z,25.30
2018-05-29T15:52:11.934Z,25.50
2018-05-29T15:54:40.340Z,25.70
2018-05-29T15:57:07.784Z,25.70
2018-05-29T15:59:35.211Z,25.40
2018-05-29T16:02:02.936Z,25.20
2018-05-29T16:04:31.164Z,25.20
2018-05-29T16:06:58.696Z,25.20
2018-05-29T16:09:26.412Z,25.40
2018-05-29T16:11:53.860Z,25.50
2018-05-29T16:14:21.318Z,25.60
2018-05-29T16:16:49.256Z,25.60
2018-05-29T16:19:16.828Z,25.50
2018-05-29T16:21:45.236Z,25.50
2018-05-29T16:24:12.654Z,25.40
2018-05-29T16:26:41.178Z,25.10
2018-05-29T16:29:09.192Z,24.70
2018-05-29T16:31:37.216Z,24.60
2018-05-29T16:34:05.592Z,24.60
2018-05-29T16:36:33.827Z,24.70
2018-05-29T16:39:01.275Z,24.70
2018-05-29T16:41:28.733Z,24.60
2018-05-29T16:43:56.188Z,24.50
2018-05-29T16:46:23.617Z,24.40
2018-05-29T16:48:51.067Z,24.40
2018-05-29T16:51:19.380Z,24.00
2018-05-29T16:53:46.830Z,23.90
2018-05-29T16:56:14.292Z,24.00
2018-05-29T16:58:41.761Z,24.00
2018-05-29T17:01:09.260Z,24.00
2018-05-29T17:03:37.452Z,23.80
2018-05-29T17:06:05.185Z,23.80
2018-05-29T17:08:32.640Z,23.90
2018-05-29T17:11:00.067Z,23.90
2018-05-29T17:13:27.673Z,24.00
2018-05-29T17:15:55.124Z,24.00
2018-05-29T17:18:22.548Z,24.00
2018-05-29T17:20:50.756Z,24.10
2018-05-29T17:23:18.996Z,24.00
2018-05-29T17:25:46.440Z,24.00
2018-05-29T17:28:13.890Z,24.00
2018-05-29T17:30:41.353Z,23.90
2018-05-29T17:33:09.668Z,23.70
2018-05-29T17:35:37.125Z,23.60
2018-05-29T17:38:05.516Z,23.60
2018-05-29T17:40:32.976Z,23.40
2018-05-29T17:43:00.452Z,23.20
2018-05-29T17:45:29.280Z,23.00
2018-05-29T17:47:56.728Z,23.00
2018-05-29T17:50:24.178Z,22.90
2018-05-29T17:52:51.960Z,22.80
2018-05-29T17:55:19.428Z,22.60
2018-05-29T17:57:46.864Z,22.60
2018-05-29T18:00:14.576Z,22.40
2018-05-29T18:02:42.040Z,22.30
2018-05-29T18:05:09.488Z,22.20
2018-05-29T18:07:37.252Z,22.20
2018-05-29T18:10:05.694Z,22.00
2018-05-29T18:12:33.133Z,22.00
2018-05-29T18:15:00.600Z,21.90
2018-05-29T18:17:28.268Z,21.80
2018-05-29T18:19:55.740Z,21.70
2018-05-29T18:22:23.196Z,21.50
2018-05-29T18:24:50.940Z,21.50
2018-05-29T18:27:18.352Z,21.40
2018-05-29T18:29:46.572Z,21.20
2018-05-29T18:32:14.240Z,21.20
2018-05-29T18:34:41.842Z,21.20
2018-05-29T18:37:10.800Z,21.20
2018-05-29T18:39:38.556Z,21.20
2018-05-29T18:42:05.997Z,21.30
2018-05-29T18:44:33.496Z,21.20
2018-05-29T18:47:00.963Z,21.20
2018-05-29T18:49:28.389Z,21.10
2018-05-29T18:51:55.836Z,21.00
2018-05-29T18:54:23.715Z,21.00
2018-05-29T18:56:51.176Z,20.90
2018-05-29T18:59:18.777Z,20.90
2018-05-29T19:01:47.016Z,20.60
2018-05-29T19:04:15.997Z,20.50
2018-05-29T19:06:43.452Z,20.50
2018-05-29T19:09:10.900Z,20.50
2018-05-29T19:11:38.584Z,20.40
2018-05-29T19:14:06.068Z,20.30
2018-05-29T19:16:33.835Z,20.20
2018-05-29T19:19:01.288Z,20.10
2018-05-29T19:21:28.746Z,20.00
2018-05-29T19:23:56.808Z,19.90
2018-05-29T19:26:25.002Z,19.60
2018-05-29T19:28:53.288Z,19.50
2018-05-29T19:31:21.032Z,19.60
2018-05-29T19:33:48.449Z,19.40
2018-05-29T19:36:15.893Z,19.40
2018-05-29T19:38:44.287Z,19.30
2018-05-29T19:41:11.756Z,19.20
2018-05-29T19:43:39.216Z,19.10
2018-05-29T19:46:06.657Z,19.10
2018-05-29T19:48:34.132Z,18.90
2018-05-29T19:51:01.648Z,18.90
2018-05-29T19:53:29.064Z,18.80
2018-05-29T19:55:56.524Z,18.70
2018-05-29T19:58:23.940Z,18.70
2018-05-29T20:00:51.601Z,18.70
2018-05-29T20:03:19.691Z,18.60
2018-05-29T20:05:47.128Z,18.50
2018-05-29T20:08:14.609Z,18.50
2018-05-29T20:10:42.056Z,18.40
2018-05-29T20:13:09.587Z,18.40
2018-05-29T20:15:38.228Z,18.30
2018-05-29T20:18:05.644Z,18.30
2018-05-29T20:20:33.116Z,18.30
2018-05-29T20:23:01.584Z,18.30
2018-05-29T20:25:29.040Z,18.30
2018-05-29T20:27:56.640Z,18.30
2018-05-29T20:30:25.632Z,18.20
2018-05-29T20:32:53.089Z,18.20
2018-05-29T20:35:20.544Z,18.20
2018-05-29T20:37:47.972Z,18.10
2018-05-29T20:40:15.671Z,18.10
2018-05-29T20:42:43.121Z,18.10
2018-05-29T20:45:10.593Z,18.10
2018-05-29T20:47:39.147Z,18.00
2018-05-29T20:50:06.616Z,18.00
2018-05-29T20:52:34.252Z,17.90
2018-05-29T20:55:01.680Z,17.90
2018-05-29T20:57:29.139Z,17.80
2018-05-29T20:59:56.916Z,17.80
2018-05-29T21:02:24.368Z,17.70
2018-05-29T21:04:51.796Z,17.70
2018-05-29T21:07:19.636Z,17.70
2018-05-29T21:09:47.080Z,17.60
2018-05-29T21:12:14.527Z,17.60
2018-05-29T21:14:42.260Z,17.50
2018-05-29T21:17:10.140Z,17.50
2018-05-29T21:19:37.588Z,17.40
2018-05-29T21:22:05.038Z,17.40
2018-05-29T21:24:32.505Z,17.40
2018-05-29T21:26:59.964Z,17.40
2018-05-29T21:29:27.384Z,17.40
2018-05-29T21:31:55.128Z,17.30
2018-05-29T21:34:22.585Z,17.20
2018-05-29T21:36:50.045Z,16.90
2018-05-29T21:39:17.768Z,16.70
2018-05-29T21:41:45.236Z,16.70
2018-05-29T21:44:12.668Z,16.80
2018-05-29T21:46:40.128Z,16.80
2018-05-29T21:49:07.584Z,16.80
2018-05-29T21:51:35.036Z,16.80
2018-05-29T21:54:02.590Z,16.80
2018-05-29T21:56:30.052Z,16.80
2018-05-29T21:58:57.492Z,16.80
2018-05-29T22:01:26.112Z,16.80
2018-05-29T22:03:53.561Z,16.80
2018-05-29T22:06:21.064Z,16.80
2018-05-29T22:08:50.324Z,16.80
2018-05-29T22:11:17.792Z,16.80
2018-05-29T22:13:45.252Z,16.70
2018-05-29T22:16:12.698Z,16.70
2018-05-29T22:18:40.208Z,16.70
2018-05-29T22:21:08.411Z,16.70
2018-05-29T22:23:36.151Z,16.70
2018-05-29T22:26:03.604Z,16.70
2018-05-29T22:28:31.805Z,16.60
2018-05-29T22:30:59.731Z,16.60
2018-05-29T22:33:27.148Z,16.50
2018-05-29T22:35:54.620Z,16.50
2018-05-29T22:38:22.408Z,16.40
2018-05-29T22:40:49.840Z,16.40
2018-05-29T22:43:17.284Z,16.30
2018-05-29T22:45:44.740Z,16.20
2018-05-29T22:48:12.214Z,16.20
2018-05-29T22:50:39.664Z,16.20
2018-05-29T22:53:07.256Z,16.20
2018-05-29T22:55:35.454Z,16.20
2018-05-29T22:58:02.876Z,16.20
2018-05-29T23:00:30.344Z,16.20
2018-05-29T23:02:57.789Z,16.10
2018-05-29T23:05:25.256Z,16.00
2018-05-29T23:07:53.824Z,15.90
2018-05-29T23:10:21.267Z,15.80
2018-05-29T23:12:48.724Z,15.80
2018-05-29T23:15:16.209Z,15.80
2018-05-29T23:17:43.664Z,15.80
2018-05-29T23:20:11.128Z,15.80
2018-05-29T23:22:38.584Z,15.80
2018-05-29T23:25:06.840Z,15.70
2018-05-29T23:27:34.228Z,15.70
2018-05-29T23:30:01.720Z,15.80
2018-05-29T23:32:29.149Z,15.70
2018-05-29T23:34:56.576Z,15.60
2018-05-29T23:37:25.052Z,15.50
2018-05-29T23:39:52.481Z,15.50
2018-05-29T23:42:19.920Z,15.50
2018-05-29T23:44:48.521Z,15.40
2018-05-29T23:47:15.940Z,15.40
2018-05-29T23:49:43.364Z,15.30
2018-05-29T23:52:11.595Z,15.30
2018-05-29T23:54:39.043Z,15.30
2018-05-29T23:57:06.504Z,15.30
2018-05-29T23:59:33.960Z,15.30
